createdAt,value
2022-09-02T00:01:16.496Z,2.50
2022-09-02T00:05:07.188Z,2.70
2022-09-02T00:08:55.015Z,2.20
2022-09-02T00:12:42.790Z,2.00
2022-09-02T00:16:30.476Z,2.10
2022-09-02T00:20:18.239Z,2.20
2022-09-02T00:24:06.083Z,2.20
2022-09-02T00:27:53.991Z,2.30
2022-09-02T00:31:41.934Z,2.10
2022-09-02T00:35:29.877Z,2.00
2022-09-02T00:39:17.784Z,2.20
2022-09-02T00:43:05.434Z,2.30
2022-09-02T00:46:53.115Z,2.70
2022-09-02T00:50:40.881Z,3.20
2022-09-02T00:54:28.870Z,2.30
2022-09-02T00:58:17.185Z,1.90
2022-09-02T01:02:05.048Z,2.30
2022-09-02T01:05:52.940Z,2.30
2022-09-02T01:09:40.765Z,2.40
2022-09-02T01:13:28.462Z,2.20
2022-09-02T01:17:28.077Z,2.20
2022-09-02T01:21:16.196Z,1.80
2022-09-02T01:25:04.037Z,2.10
2022-09-02T01:28:52.006Z,2.30
2022-09-02T01:32:40.026Z,1.90
2022-09-02T01:36:07.784Z,1.90
2022-09-02T01:39:56.427Z,2.60
2022-09-02T01:43:43.585Z,2.50
2022-09-02T01:47:31.809Z,2.40
2022-09-02T01:51:19.612Z,2.80
2022-09-02T01:54:24.967Z,2.60
2022-09-02T01:56:53.037Z,2.40
2022-09-02T01:59:21.016Z,2.20
2022-09-02T02:01:48.899Z,2.30
2022-09-02T02:04:18.698Z,2.10
2022-09-02T02:06:52.488Z,1.80
2022-09-02T02:09:22.231Z,2.10
2022-09-02T02:11:51.691Z,2.10
2022-09-02T02:14:20.151Z,2.40
2022-09-02T02:16:49.628Z,2.10
2022-09-02T02:19:17.660Z,2.40
2022-09-02T02:21:45.868Z,2.20
2022-09-02T02:24:14.378Z,2.10
2022-09-02T02:26:42.498Z,2.20
2022-09-02T02:29:10.945Z,2.50
2022-09-02T02:31:40.471Z,2.50
2022-09-02T02:34:10.547Z,2.30
2022-09-02T02:36:39.877Z,2.00
2022-09-02T02:39:10.159Z,2.10
2022-09-02T02:41:40.028Z,2.00
2022-09-02T02:44:13.021Z,2.00
2022-09-02T02:46:41.539Z,1.80
2022-09-02T02:49:09.856Z,2.00
2022-09-02T02:51:38.607Z,1.60
2022-09-02T02:54:07.407Z,1.50
2022-09-02T02:56:35.688Z,1.90
2022-09-02T02:59:03.952Z,1.70
2022-09-02T03:01:33.667Z,2.00
2022-09-02T03:04:01.609Z,1.30
2022-09-02T03:06:30.033Z,1.30
2022-09-02T03:08:59.779Z,1.70
2022-09-02T03:11:28.584Z,1.90
2022-09-02T03:13:57.690Z,3.30
2022-09-02T03:16:26.266Z,2.80
2022-09-02T03:18:54.907Z,2.30
2022-09-02T03:21:22.906Z,2.20
2022-09-02T03:23:52.675Z,1.60
2022-09-02T03:26:23.501Z,1.60
2022-09-02T03:28:59.633Z,1.50
2022-09-02T03:31:28.701Z,1.60
2022-09-02T03:33:56.759Z,1.70
2022-09-02T03:36:29.694Z,1.90
2022-09-02T03:38:59.984Z,1.90
2022-09-02T03:41:29.527Z,3.00
2022-09-02T03:43:58.918Z,3.00
2022-09-02T03:46:28.560Z,2.70
2022-09-02T03:48:56.841Z,2.10
2022-09-02T03:51:26.123Z,1.90
2022-09-02T03:53:54.992Z,1.90
2022-09-02T03:56:25.268Z,1.90
2022-09-02T03:58:53.534Z,2.30
2022-09-02T04:01:26.085Z,1.70
2022-09-02T04:03:57.054Z,2.00
2022-09-02T04:06:26.228Z,1.80
2022-09-02T04:09:01.848Z,2.20
2022-09-02T04:11:30.078Z,2.50
2022-09-02T04:13:59.053Z,1.80
2022-09-02T04:16:29.426Z,2.30
2022-09-02T04:19:02.139Z,2.60
2022-09-02T04:21:35.386Z,2.40
2022-09-02T04:24:09.657Z,2.60
2022-09-02T04:26:45.160Z,2.50
2022-09-02T04:29:14.886Z,3.00
2022-09-02T04:31:45.649Z,3.20
2022-09-02T04:34:13.926Z,2.60
2022-09-02T04:36:43.455Z,2.70
2022-09-02T04:39:13.738Z,2.80
2022-09-02T04:41:42.534Z,2.50
2022-09-02T04:44:12.125Z,2.10
2022-09-02T04:46:43.038Z,2.40
2022-09-02T04:49:15.180Z,3.20
2022-09-02T04:51:44.109Z,2.70
2022-09-02T04:54:12.736Z,3.00
2022-09-02T04:56:47.171Z,3.00
2022-09-02T04:59:15.982Z,2.10
2022-09-02T05:01:50.880Z,1.80
2022-09-02T05:04:22.962Z,2.40
2022-09-02T05:06:51.644Z,2.70
2022-09-02T05:09:21.956Z,2.20
2022-09-02T05:11:57.887Z,1.50
2022-09-02T05:14:29.549Z,2.40
2022-09-02T05:17:05.088Z,2.00
2022-09-02T05:19:37.109Z,2.10
2022-09-02T05:22:05.773Z,1.10
2022-09-02T05:24:37.770Z,2.30
2022-09-02T05:27:10.071Z,2.30
2022-09-02T05:29:38.704Z,1.80
2022-09-02T05:32:08.596Z,2.40
2022-09-02T05:34:42.380Z,1.90
2022-09-02T05:37:10.744Z,1.60
2022-09-02T05:39:41.283Z,2.60
2022-09-02T05:42:10.743Z,2.80
2022-09-02T05:44:40.049Z,2.50
2022-09-02T05:47:13.715Z,1.50
2022-09-02T05:49:47.665Z,2.00
2022-09-02T05:52:18.739Z,0.80
2022-09-02T05:54:51.032Z,2.60
2022-09-02T05:57:21.543Z,2.80
2022-09-02T06:00:08.467Z,1.90
2022-09-02T06:02:45.285Z,2.10
2022-09-02T06:05:45.365Z,1.50
2022-09-02T06:08:20.623Z,1.50
2022-09-02T06:10:49.330Z,2.50
2022-09-02T06:13:23.105Z,1.90
2022-09-02T06:15:54.391Z,3.20
2022-09-02T06:18:25.627Z,2.10
2022-09-02T06:20:55.601Z,1.60
2022-09-02T06:23:24.940Z,1.50
2022-09-02T06:25:53.330Z,1.20
2022-09-02T06:28:22.407Z,1.20
2022-09-02T06:30:50.513Z,0.90
2022-09-02T06:33:22.258Z,1.60
2022-09-02T06:35:50.672Z,2.30
2022-09-02T06:38:20.559Z,1.10
2022-09-02T06:40:51.995Z,2.20
2022-09-02T06:43:25.021Z,1.70
2022-09-02T06:46:05.381Z,2.40
2022-09-02T06:48:34.398Z,0.80
2022-09-02T06:51:02.569Z,1.00
2022-09-02T06:53:32.154Z,2.10
2022-09-02T06:56:00.752Z,1.40
2022-09-02T06:58:29.121Z,0.90
2022-09-02T07:00:57.861Z,1.10
2022-09-02T07:03:45.777Z,1.10
2022-09-02T07:06:14.444Z,1.60
2022-09-02T07:08:46.370Z,1.10
2022-09-02T07:11:19.437Z,1.90
2022-09-02T07:13:48.807Z,0.70
2022-09-02T07:16:26.970Z,1.00
2022-09-02T07:18:59.380Z,1.00
2022-09-02T07:21:29.532Z,1.50
2022-09-02T07:23:59.711Z,1.00
2022-09-02T07:26:29.986Z,1.00
2022-09-02T07:28:58.988Z,1.30
2022-09-02T07:31:29.420Z,1.20
2022-09-02T07:33:59.936Z,1.20
2022-09-02T07:36:29.798Z,0.90
2022-09-02T07:38:59.005Z,1.20
2022-09-02T07:41:27.769Z,0.80
2022-09-02T07:43:59.607Z,0.70
2022-09-02T07:46:32.178Z,1.00
2022-09-02T07:49:01.811Z,0.60
2022-09-02T07:51:31.540Z,0.60
2022-09-02T07:54:02.044Z,0.90
2022-09-02T07:56:30.357Z,0.90
2022-09-02T07:58:58.697Z,0.80
2022-09-02T08:01:27.411Z,0.60
2022-09-02T08:03:56.519Z,0.60
2022-09-02T08:06:34.947Z,0.80
2022-09-02T08:09:12.113Z,0.80
2022-09-02T08:11:44.492Z,0.60
2022-09-02T08:14:19.052Z,0.90
2022-09-02T08:16:51.309Z,0.70
2022-09-02T08:19:26.144Z,0.90
2022-09-02T08:22:06.568Z,0.70
2022-09-02T08:24:36.442Z,1.70
2022-09-02T08:27:06.007Z,0.80
2022-09-02T08:29:35.681Z,0.50
2022-09-02T08:32:08.529Z,0.50
2022-09-02T08:36:11.925Z,0.90
2022-09-02T08:39:53.945Z,0.60
2022-09-02T08:43:46.699Z,1.70
2022-09-02T08:46:18.417Z,0.40
2022-09-02T08:48:57.471Z,0.60
2022-09-02T08:51:41.421Z,0.60
2022-09-02T08:54:46.578Z,0.50
2022-09-02T08:57:15.357Z,2.10
2022-09-02T08:59:45.451Z,0.50
2022-09-02T09:02:32.876Z,0.70
2022-09-02T09:05:28.540Z,0.40
2022-09-02T09:08:16.196Z,0.60
2022-09-02T09:11:01.767Z,0.80
2022-09-02T09:14:00.195Z,0.40
2022-09-02T09:16:58.555Z,0.80
2022-09-02T09:19:35.656Z,11.80
2022-09-02T09:22:05.320Z,0.90
2022-09-02T09:24:42.490Z,0.90
2022-09-02T09:27:16.713Z,0.60
2022-09-02T09:29:45.689Z,0.50
2022-09-02T09:32:23.482Z,0.30
2022-09-02T09:34:51.863Z,0.30
2022-09-02T09:37:36.463Z,0.30
2022-09-02T09:40:26.189Z,0.40
2022-09-02T09:43:03.337Z,0.20
2022-09-02T09:45:32.438Z,2.70
2022-09-02T09:48:15.258Z,0.70
2022-09-02T09:50:45.854Z,0.30
2022-09-02T09:53:30.347Z,0.60
2022-09-02T09:56:07.992Z,0.40
2022-09-02T09:58:39.359Z,0.40
2022-09-02T10:01:31.650Z,0.50
2022-09-02T10:04:39.254Z,0.50
2022-09-02T10:07:01.679Z,0.50
2022-09-02T10:09:34.316Z,1.30
2022-09-02T10:12:06.319Z,0.30
2022-09-02T10:14:46.344Z,0.40
2022-09-02T10:17:43.539Z,0.30
2022-09-02T10:20:26.826Z,1.60
2022-09-02T10:23:06.988Z,0.60
2022-09-02T10:25:48.208Z,0.80
2022-09-02T10:28:47.985Z,0.40
2022-09-02T10:31:51.102Z,0.30
2022-09-02T10:34:41.082Z,0.30
2022-09-02T10:37:12.439Z,0.40
2022-09-02T10:40:12.930Z,0.50
2022-09-02T10:43:06.894Z,0.40
2022-09-02T10:45:47.010Z,0.50
2022-09-02T10:48:37.377Z,0.30
2022-09-02T10:51:30.191Z,0.50
2022-09-02T10:54:28.828Z,0.60
2022-09-02T10:57:20.225Z,0.30
2022-09-02T10:59:49.465Z,0.50
2022-09-02T11:02:25.520Z,0.60
2022-09-02T11:05:04.211Z,0.40
2022-09-02T11:08:06.803Z,0.40
2022-09-02T11:10:40.352Z,0.80
2022-09-02T11:13:19.349Z,0.60
2022-09-02T11:16:03.112Z,0.60
2022-09-02T11:18:59.847Z,2.20
2022-09-02T11:21:50.365Z,0.50
2022-09-02T11:24:37.995Z,0.40
2022-09-02T11:27:42.139Z,0.40
2022-09-02T11:30:24.524Z,0.20
2022-09-02T11:33:14.594Z,0.40
2022-09-02T11:35:45.920Z,0.50
2022-09-02T11:38:32.267Z,0.60
2022-09-02T11:41:37.518Z,0.20
2022-09-02T11:44:14.900Z,0.30
2022-09-02T11:46:52.951Z,0.40
2022-09-02T11:49:33.861Z,0.40
2022-09-02T11:52:09.541Z,0.40
2022-09-02T11:54:43.032Z,0.40
2022-09-02T11:57:16.095Z,0.40
2022-09-02T11:59:53.264Z,0.60
2022-09-02T12:02:43.507Z,0.40
2022-09-02T12:05:39.953Z,0.30
2022-09-02T12:08:15.262Z,1.40
2022-09-02T12:10:50.790Z,0.40
2022-09-02T12:13:46.160Z,1.00
2022-09-02T12:16:16.197Z,1.80
2022-09-02T12:18:49.151Z,0.80
2022-09-02T12:21:23.390Z,0.60
2022-09-02T12:23:54.700Z,0.60
2022-09-02T12:26:25.996Z,0.50
2022-09-02T12:29:10.973Z,0.80
2022-09-02T12:31:43.238Z,1.30
2022-09-02T12:34:20.504Z,0.40
2022-09-02T12:36:52.604Z,0.70
2022-09-02T12:39:27.501Z,0.50
2022-09-02T12:42:12.587Z,0.40
2022-09-02T12:45:26.850Z,0.40
2022-09-02T12:48:02.957Z,0.30
2022-09-02T12:50:52.021Z,0.90
2022-09-02T12:53:49.368Z,0.80
2022-09-02T12:56:23.215Z,0.50
2022-09-02T12:59:00.121Z,0.30
2022-09-02T13:02:05.154Z,2.40
2022-09-02T13:04:55.955Z,0.60
2022-09-02T13:07:51.631Z,0.20
2022-09-02T13:10:23.603Z,0.40
2022-09-02T13:13:22.234Z,0.30
2022-09-02T13:16:04.282Z,2.60
2022-09-02T13:18:54.169Z,0.60
2022-09-02T13:21:28.518Z,0.70
2022-09-02T13:24:14.732Z,13.80
2022-09-02T13:27:25.203Z,1.00
2022-09-02T13:30:09.041Z,0.70
2022-09-02T13:32:39.434Z,0.40
2022-09-02T13:35:24.109Z,0.60
2022-09-02T13:38:00.799Z,0.30
2022-09-02T13:40:34.221Z,0.40
2022-09-02T13:43:05.119Z,0.80
2022-09-02T13:45:35.285Z,0.80
2022-09-02T13:48:09.580Z,0.20
2022-09-02T13:50:46.901Z,0.40
2022-09-02T13:53:49.390Z,0.30
2022-09-02T13:56:27.345Z,0.40
2022-09-02T13:58:58.532Z,0.40
2022-09-02T14:01:33.279Z,0.60
2022-09-02T14:04:09.952Z,0.30
2022-09-02T14:06:44.285Z,3.10
2022-09-02T14:09:26.531Z,1.40
2022-09-02T14:11:55.352Z,7.30
2022-09-02T14:14:26.949Z,3.40
2022-09-02T14:17:23.711Z,0.20
2022-09-02T14:20:09.074Z,0.20
2022-09-02T14:22:38.080Z,0.20
2022-09-02T14:25:16.189Z,5.00
2022-09-02T14:27:53.546Z,0.50
2022-09-02T14:30:32.879Z,0.40
2022-09-02T14:33:25.735Z,1.70
2022-09-02T14:36:12.739Z,0.70
2022-09-02T14:38:46.957Z,0.60
2022-09-02T14:41:18.029Z,0.40
2022-09-02T14:44:00.163Z,0.40
2022-09-02T14:46:54.581Z,0.40
2022-09-02T14:49:42.068Z,0.40
2022-09-02T14:52:46.067Z,0.30
2022-09-02T14:55:42.296Z,1.30
2022-09-02T14:58:11.755Z,0.50
2022-09-02T15:00:40.368Z,0.20
2022-09-02T15:03:10.307Z,0.70
2022-09-02T15:05:38.396Z,0.50
2022-09-02T15:08:07.114Z,1.60
2022-09-02T15:10:37.193Z,0.60
2022-09-02T15:13:05.399Z,1.10
2022-09-02T15:15:34.062Z,3.20
2022-09-02T15:18:03.487Z,1.00
2022-09-02T15:20:34.247Z,1.50
2022-09-02T15:23:03.536Z,0.60
2022-09-02T15:25:34.720Z,0.50
2022-09-02T15:28:03.596Z,0.40
2022-09-02T15:30:36.496Z,3.70
2022-09-02T15:33:07.457Z,1.20
2022-09-02T15:35:36.523Z,2.00
2022-09-02T15:38:06.711Z,2.20
2022-09-02T15:40:34.895Z,1.50
2022-09-02T15:43:03.107Z,1.50
2022-09-02T15:45:31.474Z,1.00
2022-09-02T15:47:59.995Z,0.70
2022-09-02T15:50:32.179Z,0.50
2022-09-02T15:53:00.532Z,0.40
2022-09-02T15:55:33.002Z,0.50
2022-09-02T15:58:02.073Z,1.20
2022-09-02T16:00:34.632Z,0.80
2022-09-02T16:03:03.560Z,0.80
2022-09-02T16:05:32.528Z,1.00
2022-09-02T16:08:02.064Z,1.20
2022-09-02T16:10:30.124Z,0.90
2022-09-02T16:13:00.670Z,1.10
2022-09-02T16:15:30.172Z,1.10
2022-09-02T16:18:02.806Z,2.90
2022-09-02T16:20:30.936Z,1.20
2022-09-02T16:22:58.986Z,0.60
2022-09-02T16:25:26.976Z,1.60
2022-09-02T16:27:56.498Z,0.90
2022-09-02T16:30:26.445Z,1.30
2022-09-02T16:32:55.501Z,1.30
2022-09-02T16:35:24.143Z,0.90
2022-09-02T16:37:53.942Z,0.50
2022-09-02T16:40:21.980Z,0.30
2022-09-02T16:42:52.008Z,1.20
2022-09-02T16:45:21.831Z,0.60
2022-09-02T16:47:50.227Z,1.30
2022-09-02T16:50:22.219Z,0.90
2022-09-02T16:52:52.659Z,0.60
2022-09-02T16:55:23.241Z,0.60
2022-09-02T16:57:51.538Z,1.50
2022-09-02T17:00:24.114Z,1.20
2022-09-02T17:02:52.361Z,1.60
2022-09-02T17:05:20.555Z,1.50
2022-09-02T17:07:48.993Z,3.30
2022-09-02T17:10:19.520Z,2.50
2022-09-02T17:12:47.518Z,3.10
2022-09-02T17:15:15.658Z,5.50
2022-09-02T17:17:43.825Z,2.00
2022-09-02T17:20:13.397Z,3.60
2022-09-02T17:22:42.137Z,3.00
2022-09-02T17:25:11.055Z,5.80
2022-09-02T17:27:39.309Z,1.70
2022-09-02T17:30:08.715Z,2.00
2022-09-02T17:32:41.172Z,2.00
2022-09-02T17:35:11.433Z,8.10
2022-09-02T17:37:40.317Z,3.70
2022-09-02T17:40:32.502Z,6.30
2022-09-02T17:43:01.121Z,6.70
2022-09-02T17:45:30.331Z,4.40
2022-09-02T17:48:08.861Z,3.10
2022-09-02T17:50:46.751Z,3.90
2022-09-02T17:53:14.669Z,3.70
2022-09-02T17:55:43.064Z,3.20
2022-09-02T17:58:18.294Z,2.50
2022-09-02T18:00:50.729Z,2.40
2022-09-02T18:03:37.848Z,2.30
2022-09-02T18:06:16.745Z,2.30
2022-09-02T18:08:58.373Z,2.90
2022-09-02T18:11:27.305Z,2.20
2022-09-02T18:14:14.426Z,4.80
2022-09-02T18:17:12.225Z,12.00
2022-09-02T18:20:06.960Z,16.80
2022-09-02T18:23:09.855Z,8.90
2022-09-02T18:26:03.753Z,5.70
2022-09-02T18:28:56.914Z,5.30
2022-09-02T18:31:34.337Z,4.10
2022-09-02T18:34:38.619Z,5.60
2022-09-02T18:37:40.338Z,3.90
2022-09-02T18:40:10.596Z,3.60
2022-09-02T18:42:53.155Z,3.00
2022-09-02T18:45:45.947Z,3.50
2022-09-02T18:48:25.979Z,3.80
2022-09-02T18:51:00.348Z,6.40
2022-09-02T18:53:32.922Z,10.40
2022-09-02T18:56:12.472Z,7.80
2022-09-02T18:58:55.499Z,6.70
2022-09-02T19:01:35.501Z,6.20
2022-09-02T19:04:05.910Z,4.60
2022-09-02T19:06:36.707Z,4.10
2022-09-02T19:09:14.169Z,4.10
2022-09-02T19:11:42.959Z,3.50
2022-09-02T19:14:31.433Z,3.50
2022-09-02T19:17:01.340Z,3.60
2022-09-02T19:19:29.811Z,4.30
2022-09-02T19:22:14.530Z,3.60
2022-09-02T19:24:50.022Z,3.40
2022-09-02T19:27:25.868Z,2.90
2022-09-02T19:30:08.044Z,3.10
2022-09-02T19:32:38.812Z,3.20
2022-09-02T19:35:17.406Z,3.20
2022-09-02T19:37:51.401Z,3.70
2022-09-02T19:40:24.852Z,3.60
2022-09-02T19:42:57.091Z,4.00
2022-09-02T19:45:29.579Z,7.20
2022-09-02T19:48:17.003Z,4.40
2022-09-02T19:50:48.364Z,4.00
2022-09-02T19:53:31.714Z,5.10
2022-09-02T19:56:17.185Z,4.70
2022-09-02T19:58:50.605Z,4.80
2022-09-02T20:01:25.393Z,4.80
2022-09-02T20:03:54.338Z,4.60
2022-09-02T20:06:23.478Z,4.80
2022-09-02T20:08:53.691Z,4.30
2022-09-02T20:11:24.173Z,4.70
2022-09-02T20:13:53.313Z,4.60
2022-09-02T20:16:24.739Z,4.40
2022-09-02T20:18:56.079Z,3.90
2022-09-02T20:21:28.497Z,3.60
2022-09-02T20:24:07.801Z,3.80
2022-09-02T20:27:19.004Z,4.40
2022-09-02T20:30:09.482Z,3.80
2022-09-02T20:32:51.808Z,4.00
2022-09-02T20:35:49.876Z,4.80
2022-09-02T20:38:30.275Z,4.20
2022-09-02T20:41:24.751Z,4.50
2022-09-02T20:44:51.876Z,5.30
2022-09-02T20:47:49.829Z,5.20
2022-09-02T20:50:28.067Z,4.60
2022-09-02T20:53:13.730Z,4.30
2022-09-02T20:55:55.302Z,4.20
2022-09-02T20:58:51.545Z,3.00
2022-09-02T21:01:33.432Z,2.00
2022-09-02T21:04:24.190Z,3.40
2022-09-02T21:07:01.724Z,3.40
2022-09-02T21:09:59.310Z,3.60
2022-09-02T21:12:48.272Z,2.60
2022-09-02T21:15:30.952Z,2.40
2022-09-02T21:18:26.915Z,3.80
2022-09-02T21:21:16.257Z,3.40
2022-09-02T21:24:17.607Z,3.10
2022-09-02T21:27:02.722Z,3.50
2022-09-02T21:29:51.779Z,3.50
2022-09-02T21:32:29.218Z,3.70
2022-09-02T21:35:05.777Z,3.20
2022-09-02T21:37:36.735Z,3.50
2022-09-02T21:40:11.262Z,3.20
2022-09-02T21:42:48.433Z,2.40
2022-09-02T21:45:45.810Z,3.60
2022-09-02T21:48:39.577Z,2.70
2022-09-02T21:51:21.253Z,3.70
2022-09-02T21:54:11.301Z,2.80
2022-09-02T21:57:14.465Z,2.90
2022-09-02T22:00:05.514Z,3.30
2022-09-02T22:03:10.968Z,2.00
2022-09-02T22:05:56.677Z,2.50
2022-09-02T22:08:41.236Z,2.70
2022-09-02T22:11:13.755Z,2.90
2022-09-02T22:13:42.213Z,3.00
2022-09-02T22:16:45.878Z,3.00
2022-09-02T22:19:15.054Z,3.10
2022-09-02T22:21:53.984Z,2.80
2022-09-02T22:24:28.589Z,2.20
2022-09-02T22:27:06.324Z,2.30
2022-09-02T22:29:54.684Z,3.60
2022-09-02T22:32:28.029Z,2.80
2022-09-02T22:35:09.759Z,1.70
2022-09-02T22:37:55.123Z,3.50
2022-09-02T22:40:26.145Z,2.70
2022-09-02T22:43:00.768Z,3.10
2022-09-02T22:45:57.577Z,3.10
2022-09-02T22:48:53.554Z,3.00
2022-09-02T22:51:48.552Z,2.30
2022-09-02T22:54:17.502Z,2.30
2022-09-02T22:57:07.857Z,1.60
2022-09-02T22:59:52.742Z,2.50
2022-09-02T23:02:30.263Z,2.70
2022-09-02T23:05:33.009Z,1.10
2022-09-02T23:08:01.773Z,2.40
2022-09-02T23:10:29.816Z,2.90
2022-09-02T23:13:28.285Z,2.20
2022-09-02T23:16:17.281Z,2.70
2022-09-02T23:18:56.915Z,2.10
2022-09-02T23:21:45.327Z,2.50
2022-09-02T23:24:33.310Z,2.30
2022-09-02T23:27:09.955Z,2.40
2022-09-02T23:29:41.747Z,2.60
2022-09-02T23:32:43.852Z,2.30
2022-09-02T23:35:35.468Z,2.50
2022-09-02T23:38:12.016Z,1.90
2022-09-02T23:40:43.454Z,2.10
2022-09-02T23:43:18.068Z,2.40
2022-09-02T23:45:49.141Z,2.30
2022-09-02T23:48:49.539Z,2.30
2022-09-02T23:51:39.766Z,2.50
2022-09-02T23:54:15.773Z,1.10
2022-09-02T23:57:02.501Z,2.90
2022-09-02T23:59:42.589Z,2.20
